Time;durP1;ratioP1;P1;durP2;ratioP2;P2;SDS_P1;SDS_P2;PMS_P1;PMS_P2;Temp;Humidity;BMP_temperature;BMP_pressure;BME280_temperature;BME280_humidity;BME280_pressure;Samples;Min_cycle;Max_cycle;Signal;HPM_P1;HPM_P2
2022/02/10 00:06:47;;;;;;;15.57;13.80;;;2.20;99.90;;;;;;5006924;28;20431;-76
2022/02/10 00:15:12;;;;;;;15.77;14.23;;;2.30;99.90;;;;;;5010606;28;20427;-76
2022/02/10 00:17:43;;;;;;;14.63;13.33;;;2.30;99.90;;;;;;5006649;28;20973;-77
2022/02/10 00:20:16;;;;;;;14.53;13.27;;;2.30;99.90;;;;;;5011874;28;20435;-76
2022/02/10 00:23:05;;;;;;;14.27;12.97;;;2.30;99.90;;;;;;5014055;28;20468;-77
2022/02/10 00:34:08;;;;;;;13.80;12.60;;;2.30;99.90;;;;;;5006466;28;20439;-77
2022/02/10 00:34:14;;;;;;;14.13;12.83;;;2.10;99.90;;;;;;5012297;28;20443;-76
2022/02/10 00:36:42;;;;;;;14.47;12.73;;;2.10;99.90;;;;;;5007269;28;20515;-76
2022/02/10 00:39:24;;;;;;;15.43;13.40;;;2.10;99.90;;;;;;5013818;28;20442;-76
2022/02/10 00:41:53;;;;;;;15.20;13.83;;;2.00;99.90;;;;;;5018859;28;20472;-76
2022/02/10 00:44:19;;;;;;;13.80;12.50;;;2.00;99.90;;;;;;5024356;28;20839;-76
2022/02/10 00:46:46;;;;;;;14.67;13.17;;;1.90;99.90;;;;;;5013326;28;20438;-76
2022/02/10 00:49:13;;;;;;;14.93;13.50;;;1.80;99.90;;;;;;5025617;28;20458;-76
2022/02/10 00:51:41;;;;;;;15.03;13.63;;;1.80;99.90;;;;;;5013339;28;20943;-76
2022/02/10 00:54:09;;;;;;;15.13;13.77;;;1.80;99.90;;;;;;5013222;28;20450;-76
2022/02/10 00:56:36;;;;;;;14.50;13.00;;;1.80;99.90;;;;;;5013114;28;20525;-77
2022/02/10 00:59:09;;;;;;;13.67;12.47;;;1.70;99.90;;;;;;5019519;28;20446;-77
2022/02/10 01:10:25;;;;;;;14.87;13.37;;;1.50;99.90;;;;;;4966365;28;20454;-75
2022/02/10 01:12:49;;;;;;;15.07;13.67;;;1.50;99.90;;;;;;5007096;28;20456;-76
2022/02/10 01:31:51;;;;;;;14.57;13.27;;;1.40;99.90;;;;;;5011428;28;21005;-76
2022/02/10 01:34:17;;;;;;;15.23;13.73;;;1.30;99.90;;;;;;5012697;28;20441;-77
2022/02/10 01:36:44;;;;;;;14.23;13.03;;;1.30;99.90;;;;;;5012480;28;20511;-76
2022/02/10 01:39:11;;;;;;;13.90;12.70;;;1.30;99.90;;;;;;5021377;28;20451;-75
2022/02/10 01:58:35;;;;;;;14.67;13.23;;;1.20;99.90;;;;;;5002092;28;20443;-76
2022/02/10 02:03:50;;;;;;;13.77;12.60;;;1.40;99.90;;;;;;5006899;28;20419;-76
2022/02/10 02:06:23;;;;;;;18.20;13.20;;;1.40;99.90;;;;;;5012054;28;20426;-76
2022/02/10 02:08:50;;;;;;;14.20;13.00;;;1.40;99.90;;;;;;5027261;28;20840;-76
2022/02/10 02:11:17;;;;;;;14.17;12.80;;;1.40;99.90;;;;;;5010707;28;20457;-76
2022/02/10 02:13:44;;;;;;;12.93;11.90;;;1.50;99.90;;;;;;5012097;28;20485;-76
2022/02/10 02:16:10;;;;;;;13.73;12.43;;;1.50;99.90;;;;;;5011935;28;21062;-76
2022/02/10 02:18:37;;;;;;;14.17;12.97;;;1.50;99.90;;;;;;5011785;28;20492;-77
2022/02/10 02:21:05;;;;;;;14.37;13.00;;;1.50;99.90;;;;;;5010629;28;20453;-76
2022/02/10 02:23:33;;;;;;;14.03;12.73;;;1.40;99.90;;;;;;5010702;28;20476;-77
2022/02/10 02:26:06;;;;;;;13.87;12.57;;;1.50;99.90;;;;;;5027090;28;20490;-77
2022/02/10 02:28:36;;;;;;;13.53;12.33;;;1.40;99.90;;;;;;5004266;28;20911;-76
2022/02/10 02:31:07;;;;;;;13.47;12.37;;;1.50;99.90;;;;;;5011846;28;20529;-77
2022/02/10 03:06:31;;;;;;;14.70;13.53;;;1.60;99.90;;;;;;5026060;28;20443;-75
2022/02/10 03:09:03;;;;;;;14.53;13.33;;;1.70;99.90;;;;;;5010064;28;20900;-77
2022/02/10 03:11:31;;;;;;;15.37;14.07;;;1.70;99.90;;;;;;5003668;28;20445;-74
2022/02/10 03:14:02;;;;;;;16.43;14.87;;;1.70;99.90;;;;;;5009608;28;21246;-75
2022/02/10 03:16:54;;;;;;;16.23;14.67;;;1.70;99.90;;;;;;5008742;28;20547;-74
2022/02/10 03:19:35;;;;;;;14.83;13.63;;;1.70;99.90;;;;;;5011238;28;20946;-74
2022/02/10 03:22:21;;;;;;;16.17;14.67;;;1.70;99.90;;;;;;5011391;28;20977;-74
2022/02/10 04:04:01;;;;;;;14.50;13.33;;;0.90;99.90;;;;;;4988484;28;20782;-77
2022/02/10 04:06:57;;;;;;;17.43;14.97;;;0.90;99.90;;;;;;5015502;28;20499;-74
2022/02/10 04:15:14;;;;;;;22.80;18.70;;;0.90;99.90;;;;;;5003351;28;20505;-74
2022/02/10 04:18:03;;;;;;;21.17;18.93;;;1.00;99.90;;;;;;5013926;28;20478;-75
2022/02/10 04:20:47;;;;;;;19.77;17.20;;;1.00;99.90;;;;;;5010122;28;20440;-75
2022/02/10 04:23:26;;;;;;;19.20;17.07;;;1.00;99.90;;;;;;5012837;28;20496;-74
2022/02/10 04:26:05;;;;;;;20.37;18.23;;;1.00;99.90;;;;;;5009629;28;20995;-75
2022/02/10 04:28:48;;;;;;;17.90;15.97;;;1.00;99.90;;;;;;5013580;28;20538;-75
2022/02/10 04:53:08;;;;;;;15.37;13.93;;;0.80;99.90;;;;;;5010009;28;20436;-74
2022/02/10 04:59:31;;;;;;;14.20;13.10;;;0.80;99.90;;;;;;5014703;28;20440;-78
2022/02/10 05:02:23;;;;;;;14.63;13.50;;;0.70;99.90;;;;;;5014196;28;20880;-75
2022/02/10 05:05:45;;;;;;;14.37;12.97;;;0.70;99.90;;;;;;5003507;28;20451;-74
2022/02/10 05:08:43;;;;;;;13.47;12.43;;;0.60;99.90;;;;;;5009766;28;20431;-76
2022/02/10 05:16:58;;;;;;;14.00;12.80;;;0.50;99.90;;;;;;5005831;28;20850;-74
2022/02/10 05:19:55;;;;;;;14.10;12.90;;;0.50;99.90;;;;;;5012954;28;20439;-77
2022/02/10 05:33:36;;;;;;;13.70;12.47;;;0.50;99.90;;;;;;5012744;28;20447;-74
2022/02/10 05:36:07;;;;;;;14.50;12.97;;;0.40;99.90;;;;;;5012355;28;20472;-74
2022/02/10 05:38:38;;;;;;;13.50;12.30;;;0.50;99.90;;;;;;5012390;28;20522;-74
2022/02/10 05:41:48;;;;;;;13.13;11.93;;;0.60;99.90;;;;;;5012447;28;20483;-74
2022/02/10 05:44:32;;;;;;;12.63;11.43;;;0.70;99.90;;;;;;5001748;28;20925;-76
2022/02/10 05:47:27;;;;;;;12.13;11.13;;;0.70;99.90;;;;;;5027294;28;20494;-74
2022/02/10 05:53:12;;;;;;;12.20;11.20;;;0.70;99.90;;;;;;5006305;28;20451;-73
2022/02/10 05:55:51;;;;;;;11.90;10.77;;;0.70;99.90;;;;;;5007504;28;20440;-76
2022/02/10 05:58:28;;;;;;;12.20;11.23;;;0.80;99.90;;;;;;5011581;28;20439;-74
2022/02/10 06:49:01;;;;;;;11.97;11.00;;;1.00;99.90;;;;;;4988308;28;20449;-77
2022/02/10 06:51:36;;;;;;;13.17;11.97;;;1.00;99.90;;;;;;5006783;28;20452;-77
2022/02/10 06:54:14;;;;;;;13.33;12.10;;;1.00;99.90;;;;;;5007628;28;20835;-77
2022/02/10 07:05:38;;;;;;;13.03;11.93;;;1.20;99.90;;;;;;5007501;28;20515;-76
2022/02/10 07:08:21;;;;;;;13.33;12.00;;;1.30;99.90;;;;;;5003691;28;20440;-77
2022/02/10 07:13:52;;;;;;;15.77;14.10;;;1.40;99.90;;;;;;5015552;28;20472;-77
2022/02/10 07:49:37;;;;;;;14.77;13.27;;;3.70;99.90;;;;;;5022620;28;20586;-76
2022/02/10 07:55:13;;;;;;;14.13;12.97;;;4.10;99.90;;;;;;5002879;28;20914;-76
2022/02/10 07:57:47;;;;;;;14.67;13.37;;;4.10;99.90;;;;;;5005881;28;21073;-76
2022/02/10 08:00:42;;;;;;;14.83;13.47;;;4.40;99.90;;;;;;5006151;28;20285;-76
2022/02/10 08:49:56;;;;;;;12.87;11.87;;;10.20;99.90;;;;;;5009986;28;20196;-75
2022/02/10 08:55:27;;;;;;;12.43;11.43;;;10.60;99.90;;;;;;4989121;28;20204;-75
2022/02/10 09:03:52;;;;;;;13.97;12.83;;;11.20;99.90;;;;;;5039255;23;20229;-76
2022/02/10 09:06:29;;;;;;;13.27;11.87;;;11.30;99.90;;;;;;5030665;28;20444;-81
2022/02/10 09:17:25;;;;;;;6.73;6.13;;;11.80;99.90;;;;;;5041766;28;20212;-79
2022/02/10 09:47:59;;;;;;;12.07;11.03;;;12.20;99.90;;;;;;5029194;28;20545;-79
2022/02/10 09:59:08;;;;;;;12.63;10.57;;;12.20;99.90;;;;;;5087344;27;20552;-78
2022/02/10 10:01:41;;;;;;;13.27;12.07;;;12.10;99.90;;;;;;5071113;28;20201;-78
2022/02/10 10:04:13;;;;;;;11.53;10.60;;;12.10;99.90;;;;;;5077423;28;20248;-77
2022/02/10 10:07:02;;;;;;;11.90;10.90;;;12.10;99.90;;;;;;5079522;28;20625;-78
2022/02/10 10:09:38;;;;;;;10.17;9.27;;;12.10;99.90;;;;;;5089100;22;20716;-76
2022/02/10 10:15:19;;;;;;;12.57;11.57;;;12.20;99.90;;;;;;5030384;28;20665;-75
2022/02/10 10:18:39;;;;;;;12.37;11.47;;;12.20;99.90;;;;;;5027613;28;20222;-75
2022/02/10 10:21:26;;;;;;;12.97;11.97;;;12.20;99.90;;;;;;5023260;28;20226;-75
2022/02/10 10:52:40;;;;;;;11.83;10.93;;;11.70;99.90;;;;;;5026688;28;20203;-79
2022/02/10 10:55:32;;;;;;;11.83;10.73;;;11.70;99.90;;;;;;5021922;28;20230;-75
2022/02/10 10:58:01;;;;;;;12.20;11.23;;;11.80;99.90;;;;;;5021053;28;20664;-77
2022/02/10 11:07:24;;;;;;;14.63;11.90;;;11.70;99.90;;;;;;4965292;28;20212;-77
2022/02/10 11:38:14;;;;;;;11.40;10.50;;;12.10;99.90;;;;;;5022670;28;20269;-77
2022/02/10 11:44:34;;;;;;;11.60;10.70;;;12.10;99.90;;;;;;5010050;28;20341;-77
2022/02/10 12:30:21;;;;;;;11.63;10.63;;;12.50;99.90;;;;;;5008879;28;20228;-77
2022/02/10 13:02:39;;;;;;;10.57;9.67;;;12.60;99.90;;;;;;5017083;28;20196;-78
2022/02/10 13:23:28;;;;;;;8.67;7.07;;;13.50;99.90;;;;;;5012465;28;20200;-80
2022/02/10 14:13:29;;;;;;;10.70;9.60;;;12.10;99.90;;;;;;4999552;28;20204;-77
2022/02/10 14:18:39;;;;;;;11.50;10.47;;;12.10;99.90;;;;;;4987366;28;20227;-77
2022/02/10 14:21:11;;;;;;;11.47;9.93;;;11.90;99.90;;;;;;4997193;28;20224;-77
2022/02/10 14:26:33;;;;;;;11.17;10.07;;;11.70;99.90;;;;;;5000075;28;20681;-77
2022/02/10 14:29:01;;;;;;;11.57;10.57;;;11.60;99.90;;;;;;4995288;28;20208;-77
2022/02/10 14:31:28;;;;;;;11.57;10.47;;;11.50;99.90;;;;;;4996443;28;20199;-77
2022/02/10 14:33:56;;;;;;;12.03;10.93;;;11.40;99.90;;;;;;4999164;28;20552;-77
2022/02/10 14:36:30;;;;;;;11.90;10.80;;;11.30;99.90;;;;;;4998426;28;20293;-77
2022/02/10 14:39:13;;;;;;;12.47;11.17;;;11.20;99.90;;;;;;5001545;28;20218;-77
2022/02/10 15:29:37;;;;;;;12.23;10.97;;;10.00;99.90;;;;;;5005520;28;20583;-77
2022/02/10 15:51:37;;;;;;;10.80;9.47;;;9.30;99.90;;;;;;5012202;28;20301;-77
2022/02/10 15:54:23;;;;;;;11.33;10.23;;;9.30;99.90;;;;;;5010845;28;20207;-78
2022/02/10 16:10:57;;;;;;;10.83;9.63;;;8.80;99.90;;;;;;5045233;23;20231;-76
2022/02/10 16:19:05;;;;;;;10.10;9.20;;;8.60;99.90;;;;;;5031627;28;20212;-75
2022/02/10 16:21:37;;;;;;;11.03;10.10;;;8.60;99.90;;;;;;5056263;28;20296;-75
2022/02/10 16:24:16;;;;;;;11.20;10.10;;;8.60;99.90;;;;;;5056581;28;20254;-76
2022/02/10 16:26:54;;;;;;;10.90;10.00;;;8.50;99.90;;;;;;5049132;28;20642;-79
2022/02/10 16:29:22;;;;;;;10.23;9.20;;;8.50;99.90;;;;;;5060521;28;20241;-76
2022/02/10 16:31:49;;;;;;;10.10;9.30;;;8.40;99.90;;;;;;5054259;28;20682;-76
2022/02/10 16:34:16;;;;;;;9.50;8.80;;;8.40;99.90;;;;;;5046664;28;20229;-75
2022/02/10 16:36:43;;;;;;;9.40;8.70;;;8.40;99.90;;;;;;5043383;28;20738;-75
2022/02/10 16:39:13;;;;;;;10.23;9.33;;;8.40;99.90;;;;;;5045013;28;20302;-75
2022/02/10 16:41:40;;;;;;;10.27;9.47;;;8.30;99.90;;;;;;5060231;28;20634;-75
2022/02/10 16:44:07;;;;;;;10.13;9.30;;;8.30;99.90;;;;;;5052796;28;20250;-75
2022/02/10 16:46:34;;;;;;;10.20;9.50;;;8.20;99.90;;;;;;5054650;28;20263;-75
2022/02/10 16:49:01;;;;;;;10.30;9.50;;;8.20;99.90;;;;;;5046023;28;20199;-75
2022/02/10 16:51:28;;;;;;;9.60;9.00;;;8.20;99.90;;;;;;5047182;28;20218;-75
2022/02/10 16:54:04;;;;;;;10.10;9.30;;;8.30;99.90;;;;;;5048856;28;20206;-76
2022/02/10 16:56:39;;;;;;;9.63;8.83;;;8.20;99.90;;;;;;5067169;28;20269;-76
2022/02/10 16:59:23;;;;;;;9.73;8.93;;;8.20;99.90;;;;;;5047565;28;20217;-76
2022/02/10 17:04:52;;;;;;;10.43;9.63;;;8.20;99.90;;;;;;5035626;28;20293;-74
2022/02/10 17:16:55;;;;;;;11.03;10.13;;;8.10;99.90;;;;;;5063586;28;20278;-76
2022/02/10 17:19:06;;;;;;;9.93;9.23;;;8.10;99.90;;;;;;5056476;28;20218;-75
2022/02/10 17:27:06;;;;;;;9.60;8.90;;;8.10;99.90;;;;;;5044817;28;20217;-75
2022/02/10 17:29:53;;;;;;;9.70;8.90;;;8.10;99.90;;;;;;5057268;28;20194;-76
2022/02/10 17:32:28;;;;;;;10.47;9.60;;;8.10;99.90;;;;;;5054205;28;20222;-76
2022/02/10 17:46:08;;;;;;;12.73;11.63;;;8.00;99.90;;;;;;5048524;28;20317;-76
2022/02/10 17:51:44;;;;;;;10.73;9.80;;;7.90;99.90;;;;;;5054275;28;20575;-75
2022/02/10 17:54:12;;;;;;;10.63;9.73;;;7.90;99.90;;;;;;5049920;28;20196;-75
2022/02/10 17:56:39;;;;;;;9.60;8.80;;;7.90;99.90;;;;;;5049405;28;20202;-76
2022/02/10 17:59:07;;;;;;;10.20;9.40;;;7.90;99.90;;;;;;5042925;28;20222;-75
2022/02/10 18:01:36;;;;;;;9.40;8.70;;;7.90;99.90;;;;;;5043543;28;20261;-76
2022/02/10 18:04:03;;;;;;;9.83;9.13;;;7.90;99.90;;;;;;5050510;28;20206;-76
2022/02/10 18:06:31;;;;;;;9.10;8.50;;;7.90;99.90;;;;;;5050537;28;20603;-76
2022/02/10 18:14:30;;;;;;;10.00;9.30;;;7.90;99.90;;;;;;5052918;28;20198;-75
2022/02/10 18:17:06;;;;;;;9.87;9.00;;;7.90;99.90;;;;;;5048760;28;20307;-75
2022/02/10 18:19:37;;;;;;;9.97;9.07;;;7.90;99.90;;;;;;5051532;28;20219;-74
2022/02/10 18:27:39;;;;;;;9.70;8.90;;;7.90;99.90;;;;;;5040333;28;20612;-76
2022/02/10 18:30:18;;;;;;;9.43;8.73;;;7.80;99.90;;;;;;5042340;28;20222;-74
2022/02/10 19:09:02;;;;;;;9.70;9.00;;;7.70;99.90;;;;;;5035792;28;20282;-76
2022/02/10 19:11:29;;;;;;;9.43;8.63;;;7.70;99.90;;;;;;5051178;28;20241;-76
2022/02/10 19:13:58;;;;;;;9.53;8.83;;;7.60;99.90;;;;;;5060812;28;20206;-76
2022/02/10 19:16:25;;;;;;;9.67;8.97;;;7.60;99.90;;;;;;5046884;28;20222;-77
2022/02/10 19:18:52;;;;;;;9.90;9.20;;;7.60;99.90;;;;;;5048369;28;20215;-76
2022/02/10 19:21:21;;;;;;;9.97;9.17;;;7.50;99.90;;;;;;5053485;28;20212;-77
2022/02/10 19:23:48;;;;;;;9.47;8.77;;;7.50;99.90;;;;;;5053086;28;20682;-76
2022/02/10 19:26:15;;;;;;;9.17;8.57;;;7.50;99.90;;;;;;5052896;28;20201;-76
2022/02/10 19:28:42;;;;;;;9.20;8.50;;;7.50;99.90;;;;;;5052124;28;20197;-75
2022/02/10 19:31:10;;;;;;;10.10;9.40;;;7.50;99.90;;;;;;5053877;28;20308;-76
2022/02/10 19:33:37;;;;;;;10.37;9.47;;;7.50;99.90;;;;;;5052817;28;20292;-75
2022/02/10 19:36:04;;;;;;;9.73;9.03;;;7.50;99.90;;;;;;5053815;28;20199;-75
2022/02/10 19:38:33;;;;;;;10.77;9.97;;;7.50;99.90;;;;;;5051294;28;20216;-76
2022/02/10 19:41:00;;;;;;;11.20;10.20;;;7.50;99.90;;;;;;5050346;28;20228;-76
2022/02/10 19:43:27;;;;;;;11.83;10.63;;;7.50;99.90;;;;;;5054198;28;20198;-76
2022/02/10 19:45:54;;;;;;;11.17;10.17;;;7.50;99.90;;;;;;5054585;28;20256;-75
2022/02/10 19:48:22;;;;;;;12.20;10.97;;;7.50;99.90;;;;;;5052878;28;20187;-75
2022/02/10 19:50:52;;;;;;;10.67;9.87;;;7.40;99.90;;;;;;5052780;28;20705;-76
2022/02/10 19:53:19;;;;;;;10.80;9.90;;;7.50;99.90;;;;;;5054161;28;20247;-75
2022/02/10 19:55:50;;;;;;;11.70;10.67;;;7.40;99.90;;;;;;5052780;28;20206;-74
2022/02/10 19:58:21;;;;;;;11.20;10.30;;;7.40;99.90;;;;;;5054485;28;20202;-75
2022/02/10 20:00:52;;;;;;;11.27;10.37;;;7.40;99.90;;;;;;5056737;28;20317;-75
2022/02/10 20:03:21;;;;;;;11.03;10.10;;;7.40;99.90;;;;;;5064711;28;20209;-75
2022/02/10 20:05:51;;;;;;;11.20;10.20;;;7.30;99.90;;;;;;5060249;28;20725;-74
2022/02/10 20:08:20;;;;;;;10.43;9.63;;;7.30;99.90;;;;;;5065352;28;20202;-74
2022/02/10 20:10:51;;;;;;;10.73;9.93;;;7.30;99.90;;;;;;5054355;28;20240;-76
2022/02/10 20:13:19;;;;;;;10.53;9.67;;;7.30;99.90;;;;;;5063582;28;20197;-78
2022/02/10 20:15:50;;;;;;;11.67;10.70;;;7.30;99.90;;;;;;5052775;28;20708;-77
2022/02/10 20:18:17;;;;;;;12.13;11.10;;;7.30;99.90;;;;;;5048801;28;20206;-77
2022/02/10 20:20:45;;;;;;;12.20;11.03;;;7.20;99.90;;;;;;5060464;28;20222;-76
2022/02/10 20:23:13;;;;;;;12.60;11.50;;;7.20;99.90;;;;;;5050783;28;20202;-76
2022/02/10 20:25:40;;;;;;;12.30;11.27;;;7.20;99.90;;;;;;5068496;28;20208;-77
2022/02/10 20:28:09;;;;;;;12.80;11.60;;;7.20;99.90;;;;;;5050946;28;20200;-76
2022/02/10 20:30:37;;;;;;;12.57;11.37;;;7.20;99.90;;;;;;5060914;28;20232;-76
2022/02/10 20:33:04;;;;;;;12.73;11.63;;;7.20;99.90;;;;;;5061544;28;20226;-76
2022/02/10 20:35:32;;;;;;;12.60;11.40;;;7.20;99.90;;;;;;5064348;28;20219;-76
2022/02/10 20:38:00;;;;;;;12.03;11.03;;;7.20;99.90;;;;;;5059614;28;20263;-78
2022/02/10 20:40:27;;;;;;;11.87;10.87;;;7.20;99.90;;;;;;5041326;28;20217;-76
2022/02/10 20:43:02;;;;;;;12.70;11.70;;;7.10;99.90;;;;;;5055113;28;20678;-76
2022/02/10 20:45:30;;;;;;;13.47;12.27;;;7.10;99.90;;;;;;5048910;28;20192;-75
2022/02/10 20:47:57;;;;;;;12.90;11.60;;;7.10;99.90;;;;;;5052100;28;20792;-75
2022/02/10 20:50:24;;;;;;;12.43;11.40;;;7.10;99.90;;;;;;5059374;28;20283;-75
2022/02/10 20:52:51;;;;;;;13.00;11.90;;;7.10;99.90;;;;;;5049807;28;20202;-75
2022/02/10 20:55:18;;;;;;;12.87;11.80;;;7.10;99.90;;;;;;5066559;28;20207;-75
2022/02/10 20:57:45;;;;;;;13.47;12.27;;;7.10;99.90;;;;;;5059637;28;20209;-75
2022/02/10 21:00:14;;;;;;;12.77;11.77;;;7.10;99.90;;;;;;5053247;28;20620;-75
2022/02/10 21:02:45;;;;;;;12.27;11.17;;;7.10;99.90;;;;;;5050765;28;20292;-75
2022/02/10 21:05:25;;;;;;;12.30;11.20;;;7.10;99.90;;;;;;5057991;28;20209;-76
2022/02/10 21:08:01;;;;;;;12.20;11.07;;;7.00;99.90;;;;;;5063975;28;20204;-76
2022/02/10 21:10:29;;;;;;;13.40;12.20;;;7.10;99.90;;;;;;5061477;28;20225;-75
2022/02/10 21:12:55;;;;;;;13.40;12.27;;;7.00;99.90;;;;;;5051850;28;20674;-75
2022/02/10 21:15:28;;;;;;;13.43;12.23;;;7.10;99.90;;;;;;5057002;28;21259;-76
2022/02/10 21:18:01;;;;;;;12.77;11.67;;;7.10;99.90;;;;;;5057333;28;20196;-75
2022/02/10 21:20:31;;;;;;;13.83;12.43;;;7.10;99.90;;;;;;5042731;28;20259;-75
2022/02/10 21:23:06;;;;;;;14.13;12.77;;;7.00;99.90;;;;;;5049090;28;20205;-75
2022/02/10 21:25:36;;;;;;;13.20;12.10;;;7.00;99.90;;;;;;5044858;28;20204;-75
2022/02/10 21:28:13;;;;;;;13.90;12.80;;;7.00;99.90;;;;;;5040890;28;20213;-75
2022/02/10 21:30:40;;;;;;;14.70;13.40;;;7.00;99.90;;;;;;5060357;28;20720;-75
2022/02/10 21:33:14;;;;;;;14.87;13.47;;;7.00;99.90;;;;;;5066138;28;20197;-75
2022/02/10 21:36:03;;;;;;;12.87;11.77;;;6.90;99.90;;;;;;5055663;28;20689;-75
2022/02/10 21:38:31;;;;;;;13.83;12.57;;;6.90;99.90;;;;;;5051827;28;20204;-76
2022/02/10 21:41:30;;;;;;;13.23;12.13;;;6.90;99.90;;;;;;5056106;28;20211;-75
2022/02/10 21:55:37;;;;;;;13.77;12.47;;;6.90;99.90;;;;;;5028142;28;20245;-76
2022/02/10 22:04:24;;;;;;;13.57;12.20;;;6.90;99.90;;;;;;5041738;28;20690;-74
2022/02/10 22:09:41;;;;;;;13.23;12.13;;;6.80;99.90;;;;;;5038465;28;20196;-75
2022/02/10 22:20:21;;;;;;;13.90;12.60;;;6.70;99.90;;;;;;5006852;28;20708;-76
2022/02/10 22:23:02;;;;;;;75.30;41.97;;;6.70;99.90;;;;;;5002222;28;20208;-76
2022/02/10 22:25:28;;;;;;;43.67;28.93;;;6.60;99.90;;;;;;5011856;28;20193;-76
2022/02/10 22:28:00;;;;;;;43.73;26.73;;;6.70;99.90;;;;;;5009748;28;20707;-76
2022/02/10 22:30:39;;;;;;;37.37;25.57;;;6.70;99.90;;;;;;4992589;28;20257;-76
2022/02/10 22:33:18;;;;;;;25.80;20.20;;;6.70;99.90;;;;;;4996376;28;20673;-76
2022/02/10 22:35:45;;;;;;;22.20;18.03;;;6.70;99.90;;;;;;4994413;28;20204;-76
2022/02/10 22:38:13;;;;;;;21.00;17.27;;;6.60;99.90;;;;;;4992043;28;20675;-76
2022/02/10 22:40:52;;;;;;;19.00;17.20;;;6.60;99.90;;;;;;4996298;28;20225;-77
2022/02/10 22:43:19;;;;;;;17.97;16.27;;;6.70;99.90;;;;;;4995364;28;20206;-76
2022/02/10 22:45:46;;;;;;;18.30;16.27;;;6.70;99.90;;;;;;4992661;28;20252;-76
2022/02/10 22:48:13;;;;;;;20.03;17.93;;;6.70;99.90;;;;;;4988038;28;20211;-76
2022/02/10 22:50:40;;;;;;;19.57;17.60;;;6.80;99.90;;;;;;4999059;28;20213;-76
2022/02/10 22:53:07;;;;;;;20.30;18.20;;;6.80;99.90;;;;;;4993316;28;20230;-76
2022/02/10 22:55:38;;;;;;;20.80;18.70;;;6.70;99.90;;;;;;4998209;28;20201;-76
2022/02/10 22:58:04;;;;;;;21.87;18.83;;;6.70;99.90;;;;;;4995556;28;20257;-77
2022/02/10 23:00:33;;;;;;;20.40;18.17;;;6.70;99.90;;;;;;4994813;28;20235;-76
2022/02/10 23:03:00;;;;;;;18.90;16.90;;;6.70;99.90;;;;;;4994116;28;20625;-77
2022/02/10 23:05:27;;;;;;;18.57;16.77;;;6.70;99.90;;;;;;4997954;28;20203;-76
2022/02/10 23:07:57;;;;;;;16.57;14.97;;;6.70;99.90;;;;;;5003524;28;20211;-76
2022/02/10 23:10:46;;;;;;;17.47;15.67;;;6.70;99.90;;;;;;4998514;28;20193;-77
2022/02/10 23:13:16;;;;;;;20.03;17.07;;;6.70;99.90;;;;;;5003789;28;20204;-77
2022/02/10 23:15:43;;;;;;;18.20;16.47;;;6.70;99.90;;;;;;5000399;28;20632;-76
2022/02/10 23:18:12;;;;;;;18.03;16.30;;;6.70;99.90;;;;;;4995407;28;20216;-76
2022/02/10 23:20:39;;;;;;;17.30;15.70;;;6.70;99.90;;;;;;5000708;28;20649;-76
2022/02/10 23:23:08;;;;;;;16.77;15.07;;;6.60;99.90;;;;;;4998028;28;20201;-76
2022/02/10 23:25:36;;;;;;;16.60;15.00;;;6.60;99.90;;;;;;5002958;28;20212;-76
2022/02/10 23:28:04;;;;;;;17.27;15.67;;;6.70;99.90;;;;;;5000162;28;20201;-76
2022/02/10 23:30:32;;;;;;;17.47;15.83;;;6.70;99.90;;;;;;5003657;28;20198;-76
2022/02/10 23:33:04;;;;;;;18.40;16.77;;;6.70;99.90;;;;;;5001345;28;20256;-76
2022/02/10 23:38:17;;;;;;;18.80;16.97;;;6.60;99.90;;;;;;4988829;28;20217;-77
2022/02/10 23:41:25;;;;;;;17.80;16.10;;;6.60;99.90;;;;;;4995175;28;20258;-76
2022/02/10 23:43:33;;;;;;;18.97;17.17;;;6.60;99.90;;;;;;4984410;28;20194;-76
2022/02/10 23:46:01;;;;;;;17.37;15.73;;;6.60;99.90;;;;;;4997244;28;20232;-76
2022/02/10 23:48:29;;;;;;;18.40;16.60;;;6.60;99.90;;;;;;4983195;28;20209;-76
2022/02/10 23:50:56;;;;;;;18.03;16.17;;;6.60;99.90;;;;;;5001937;28;20723;-76
2022/02/10 23:53:23;;;;;;;18.77;16.10;;;6.60;99.90;;;;;;4998671;28;20213;-76
2022/02/10 23:55:50;;;;;;;16.67;15.27;;;6.60;99.90;;;;;;5004766;28;20691;-76
2022/02/10 23:58:26;;;;;;;16.87;15.10;;;6.60;99.90;;;;;;4996327;28;20743;-76
